Hastings, West Virginia
Current Conditions -  °F | °C
As of 2:53 AM on Friday 24 Oct 2014 (Local Time) from KCKB Reporting Station
Clear Clear  
Wind Chill: 42°   Ceiling: Unl
Heat Index: 42°   Visibility: 8mi
Dew Point: 41°   Wind: 0mph
Humidity: 96%   Direction: NA
Pressure: 30.1"   Gusts: NA
Location:  39.5697°N, 80.6462°W
Report Text: KCKB 240653Z 00000KT 8SM CLR 06/05 A3010 RMK AO2 SLP189 T00560050
Loading
Personal Weather Stations






























Interactive Weather Map
Tropical Storm Tracking
New forecast layout! Learn more

10-Day Weather Forecast

Advertisements
Track Severe Weather on mobile